createdAt,value
2023-05-10T00:00:02.535Z,0.128
2023-05-10T00:05:02.500Z,0.13
2023-05-10T00:10:02.597Z,0.129
2023-05-10T00:15:02.503Z,0.125
2023-05-10T00:20:02.543Z,0.127
2023-05-10T00:25:02.558Z,0.157
2023-05-10T00:30:02.541Z,0.177
2023-05-10T00:35:02.544Z,0.166
2023-05-10T00:40:02.597Z,0.134
2023-05-10T00:45:02.563Z,0.113
2023-05-10T00:50:02.565Z,0.03
2023-05-10T00:55:02.559Z,0
2023-05-10T01:00:02.508Z,0
2023-05-10T01:05:02.629Z,0
2023-05-10T01:10:00.852Z,0
2023-05-10T01:15:00.913Z,0.145
2023-05-10T01:20:00.819Z,0.177
2023-05-10T01:25:00.788Z,0.167
2023-05-10T01:30:13.942Z,0.126
2023-05-10T01:35:00.837Z,0.129
2023-05-10T01:40:00.843Z,0.13
2023-05-10T01:45:00.819Z,0.116
2023-05-10T01:50:00.838Z,0.116
2023-05-10T01:55:00.839Z,0.11800000000000001
2023-05-10T02:00:00.844Z,0.154
2023-05-10T02:05:00.822Z,0.162
2023-05-10T02:10:00.826Z,0.16
2023-05-10T02:15:01.013Z,0.123
2023-05-10T02:20:00.916Z,0.108
2023-05-10T02:25:00.890Z,0.111
2023-05-10T02:30:00.899Z,0.124
2023-05-10T02:35:00.907Z,0.126
2023-05-10T02:40:00.850Z,0.131
2023-05-10T02:45:00.921Z,0.135
2023-05-10T02:50:00.929Z,0.159
2023-05-10T02:55:00.918Z,0.165
2023-05-10T03:00:00.996Z,0.158
2023-05-10T03:05:00.940Z,0.125
2023-05-10T03:10:00.889Z,0.131
2023-05-10T03:15:00.918Z,0.134
2023-05-10T03:20:00.974Z,3.245
2023-05-10T03:25:00.925Z,37.867
2023-05-10T03:30:00.924Z,38.354
2023-05-10T03:35:00.949Z,53.882
2023-05-10T03:40:00.936Z,69.996
2023-05-10T03:45:00.974Z,92.271
2023-05-10T03:50:00.960Z,114.861
2023-05-10T03:55:00.986Z,135.966
2023-05-10T04:00:00.984Z,156.252
2023-05-10T04:05:00.967Z,177.933
2023-05-10T04:10:00.955Z,196.066
2023-05-10T04:15:01.030Z,214.88400000000001
2023-05-10T04:20:01.120Z,233.924
2023-05-10T04:25:01.065Z,253.249
2023-05-10T04:30:01.061Z,269.582
2023-05-10T04:35:01.054Z,286.224
2023-05-10T04:40:01.085Z,300.913
2023-05-10T04:45:00.953Z,317.951
2023-05-10T04:50:00.978Z,333.55
2023-05-10T04:55:01.025Z,347.748
2023-05-10T05:00:01.025Z,360.75100000000003
2023-05-10T05:05:00.969Z,377.80400000000003
2023-05-10T05:10:01.152Z,388.491
2023-05-10T05:15:01.070Z,402.871
2023-05-10T05:20:01.079Z,426.455
2023-05-10T05:25:01.091Z,466.341
2023-05-10T05:30:01.049Z,519.944
2023-05-10T05:35:01.050Z,586.775
2023-05-10T05:40:00.994Z,668.866
2023-05-10T05:45:01.028Z,766.403
2023-05-10T05:50:01.088Z,883.759
2023-05-10T05:55:01.132Z,1012.796
2023-05-10T06:00:01.137Z,1152.539
2023-05-10T06:05:01.129Z,1313.112
2023-05-10T06:10:01.096Z,1475.9460000000001
2023-05-10T06:15:01.090Z,1635.016
2023-05-10T06:20:01.118Z,1793.6190000000001
2023-05-10T06:25:01.065Z,1968.729
2023-05-10T06:35:01.071Z,2331.737
2023-05-10T06:40:01.108Z,2541.363
2023-05-10T06:45:01.135Z,2760.251
2023-05-10T06:50:01.143Z,2956.969
2023-05-10T06:55:01.118Z,3138.507
2023-05-10T07:00:01.157Z,3312.346
2023-05-10T07:05:03.019Z,3482.413
2023-05-10T07:10:01.128Z,3657.166
2023-05-10T07:15:01.212Z,3828.5080000000003
2023-05-10T07:20:01.264Z,4008.0260000000003
2023-05-10T07:25:01.127Z,4166.477
2023-05-10T07:30:01.202Z,4306.252
2023-05-10T07:35:01.189Z,4482.92
2023-05-10T07:40:01.143Z,4640.589
2023-05-10T07:45:01.134Z,4792.594
2023-05-10T07:50:01.134Z,4935.621
2023-05-10T07:55:01.108Z,5090.254
2023-05-10T08:00:01.189Z,5215.537
2023-05-10T08:05:01.179Z,5355.145
2023-05-10T08:10:01.226Z,5513.613
2023-05-10T08:15:01.349Z,5641.1050000000005
2023-05-10T08:20:01.231Z,5752.619
2023-05-10T08:25:01.160Z,5876.646
2023-05-10T08:30:01.282Z,5976.78
2023-05-10T08:35:01.194Z,6067.872
2023-05-10T08:40:01.218Z,6182.686
2023-05-10T08:45:01.202Z,6298.622
2023-05-10T08:50:01.235Z,6378.067
2023-05-10T08:55:01.341Z,6510.857
2023-05-10T09:00:01.196Z,6627.055
2023-05-10T09:05:01.275Z,6724.866
2023-05-10T09:10:01.235Z,6818.581
2023-05-10T09:15:01.307Z,6933.064
2023-05-10T09:20:01.230Z,7047.425
2023-05-10T09:25:01.192Z,7129.29
2023-05-10T09:30:01.228Z,7201.4980000000005
2023-05-10T09:35:01.237Z,7293.045
2023-05-10T09:40:01.271Z,7376.009
2023-05-10T09:45:01.372Z,7410.084
2023-05-10T09:50:01.292Z,7465.243
2023-05-10T09:55:01.271Z,7541.936000000001
2023-05-10T10:00:01.285Z,7664.932
2023-05-10T10:05:01.333Z,7738.184
2023-05-10T10:10:01.269Z,7766.079
2023-05-10T10:15:01.352Z,7874.991
2023-05-10T10:20:01.391Z,7930.236
2023-05-10T10:25:01.330Z,7945.367
2023-05-10T10:30:01.339Z,8004.126
2023-05-10T10:35:01.436Z,8064.802000000001
2023-05-10T10:40:01.464Z,8092.618
2023-05-10T10:45:01.505Z,8111.609
2023-05-10T10:50:01.481Z,8139.411
2023-05-10T10:55:01.462Z,8132.534000000001
2023-05-10T11:00:01.304Z,8164.511
2023-05-10T11:05:01.396Z,8232.344000000001
2023-05-10T11:10:01.394Z,8258.063
2023-05-10T11:15:01.387Z,8250.514000000001
2023-05-10T11:20:01.385Z,8277.196
2023-05-10T11:25:01.306Z,8323.61
2023-05-10T11:30:03.206Z,8315.782000000001
2023-05-10T11:35:01.309Z,8291.953
2023-05-10T11:40:01.361Z,8266.569
2023-05-10T11:45:01.383Z,8262.231
2023-05-10T11:50:01.483Z,8292.694
2023-05-10T11:55:01.539Z,8315.783
2023-05-10T12:00:01.473Z,8296.644
2023-05-10T12:05:01.627Z,8312.134
2023-05-10T12:15:01.421Z,8184.3060000000005
2023-05-10T12:20:01.401Z,8132.295
2023-05-10T12:25:01.440Z,8110.731
2023-05-10T12:30:01.429Z,8090.110000000001
2023-05-10T12:35:01.382Z,8094.734
2023-05-10T12:40:01.352Z,7998.321
2023-05-10T12:45:01.394Z,7979.267
2023-05-10T12:50:01.455Z,7917.66
2023-05-10T12:55:01.600Z,7879.217000000001
2023-05-10T13:00:01.444Z,7831.689
2023-05-10T13:05:01.571Z,7790.477
2023-05-10T13:10:01.556Z,7699.494000000001
2023-05-10T13:15:01.570Z,7640.294
2023-05-10T13:20:01.433Z,7586.892
2023-05-10T13:25:01.433Z,7527.616
2023-05-10T13:30:01.501Z,7460.202
2023-05-10T13:35:01.442Z,7379.03
2023-05-10T13:40:01.444Z,7304.134
2023-05-10T13:45:01.585Z,7198.778
2023-05-10T13:50:01.522Z,7133.729
2023-05-10T13:55:01.478Z,7047.948
2023-05-10T14:00:01.610Z,6973.837
2023-05-10T14:05:01.638Z,6868.0470000000005
2023-05-10T14:10:01.446Z,6770.943
2023-05-10T14:15:01.500Z,6658.983
2023-05-10T14:20:01.525Z,6554.706
2023-05-10T14:25:01.448Z,6450.819
2023-05-10T14:30:01.504Z,6325.936
2023-05-10T14:35:01.611Z,6194.682
2023-05-10T14:40:01.500Z,6068.607
2023-05-10T14:45:01.633Z,5953.8550000000005
2023-05-10T14:50:01.669Z,5864.706
2023-05-10T14:55:01.673Z,5726.504
2023-05-10T15:00:01.532Z,5579.812
2023-05-10T15:05:01.534Z,5441.644
2023-05-10T15:10:01.609Z,5301.7480000000005
2023-05-10T15:15:01.623Z,5153.0160000000005
2023-05-10T15:20:01.532Z,5011.6630000000005
2023-05-10T15:25:01.533Z,4865.0960000000005
2023-05-10T15:30:01.616Z,4716.264
2023-05-10T15:35:01.727Z,4573.031
2023-05-10T15:40:01.612Z,4415.351
2023-05-10T15:45:01.589Z,4250.499
2023-05-10T15:50:01.650Z,4090.876
2023-05-10T15:55:01.616Z,3919.41
2023-05-10T16:00:01.716Z,3755
2023-05-10T16:05:01.643Z,3577.483
2023-05-10T16:10:01.680Z,3403.3160000000003
2023-05-10T16:15:01.705Z,3239.375
2023-05-10T16:20:01.538Z,3064.0460000000003
2023-05-10T16:25:01.556Z,2902.692
2023-05-10T16:30:01.668Z,2728.339
2023-05-10T16:35:01.600Z,2548.425
2023-05-10T16:40:01.749Z,2373.297
2023-05-10T16:45:01.636Z,2204.907
2023-05-10T16:50:01.729Z,2038.624
2023-05-10T16:55:01.740Z,1866.538
2023-05-10T17:00:01.728Z,1692.981
2023-05-10T17:05:01.738Z,1523.186
2023-05-10T17:10:01.602Z,1363.2540000000001
2023-05-10T17:15:01.677Z,1203.116
2023-05-10T17:20:01.629Z,1046.434
2023-05-10T17:25:01.650Z,899.566
2023-05-10T17:30:01.765Z,769.605
2023-05-10T17:35:01.827Z,650.843
2023-05-10T17:40:01.774Z,539.863
2023-05-10T17:45:01.672Z,425.509
2023-05-10T17:50:01.674Z,331.555
2023-05-10T17:55:01.690Z,258.368
2023-05-10T18:00:01.661Z,207.351
2023-05-10T18:05:01.786Z,171.041
2023-05-10T18:10:01.758Z,136.853
2023-05-10T18:15:01.767Z,112.99300000000001
2023-05-10T18:20:01.890Z,91.904
2023-05-10T18:25:01.881Z,72.083
2023-05-10T18:30:01.953Z,51.559000000000005
2023-05-10T18:35:01.740Z,34.769
2023-05-10T18:40:01.747Z,40.666000000000004
2023-05-10T18:45:01.779Z,29.091
2023-05-10T18:50:01.720Z,23.201
2023-05-10T18:55:01.740Z,10.89
2023-05-10T19:00:01.730Z,0.003
2023-05-10T19:05:01.756Z,0
2023-05-10T19:10:01.740Z,0
2023-05-10T19:15:01.781Z,0
2023-05-10T19:20:03.075Z,0.003
2023-05-10T19:25:01.840Z,0.002
2023-05-10T19:30:01.880Z,0.137
2023-05-10T19:35:01.979Z,0
2023-05-10T19:40:01.778Z,0
2023-05-10T19:45:01.811Z,0
2023-05-10T19:50:01.895Z,0
2023-05-10T19:55:01.809Z,0
2023-05-10T20:00:01.749Z,0
2023-05-10T20:05:01.759Z,0.002
2023-05-10T20:10:01.879Z,0
2023-05-10T20:15:01.826Z,0.005
2023-05-10T20:20:01.850Z,0.001
2023-05-10T20:25:01.793Z,0
2023-05-10T20:30:01.838Z,0
2023-05-10T20:35:02.020Z,0
2023-05-10T20:40:01.933Z,0
2023-05-10T20:45:02.058Z,0
2023-05-10T20:50:01.772Z,0
2023-05-10T20:55:01.829Z,0.009000000000000001
2023-05-10T21:00:01.829Z,0.022
2023-05-10T21:05:01.867Z,0
2023-05-10T21:10:01.963Z,0
2023-05-10T21:15:01.851Z,0
2023-05-10T21:20:01.965Z,0
2023-05-10T21:25:01.903Z,0
2023-05-10T21:30:01.804Z,0
2023-05-10T21:35:01.821Z,0
2023-05-10T21:40:01.852Z,0
2023-05-10T21:45:01.940Z,0
2023-05-10T21:50:02.039Z,0
2023-05-10T21:55:02.019Z,0
2023-05-10T22:00:02.071Z,0
2023-05-10T22:05:01.842Z,0
2023-05-10T22:10:02.185Z,0
2023-05-10T22:15:10.138Z,0
2023-05-10T22:20:01.920Z,0
2023-05-10T22:25:01.907Z,0
2023-05-10T22:30:01.883Z,0.015
2023-05-10T22:35:01.886Z,0.006
2023-05-10T22:40:01.906Z,0.003
2023-05-10T22:45:01.969Z,0
2023-05-10T22:50:01.907Z,0
2023-05-10T22:55:01.896Z,0
2023-05-10T23:00:02.007Z,0
2023-05-10T23:05:02.001Z,0
2023-05-10T23:10:02.023Z,0
2023-05-10T23:15:02.113Z,0
2023-05-10T23:20:02.182Z,0.004
2023-05-10T23:25:02.009Z,0.005
2023-05-10T23:30:01.953Z,0
2023-05-10T23:35:01.935Z,0
2023-05-10T23:40:01.958Z,0
2023-05-10T23:45:01.996Z,0
2023-05-10T23:50:01.971Z,0
2023-05-10T23:55:01.936Z,0.002
